createdAt,value
2022-09-05T00:00:26.779Z,18.53
2022-09-05T00:02:33.510Z,18.56
2022-09-05T00:04:25.455Z,18.54
2022-09-05T00:06:10.121Z,18.55
2022-09-05T00:07:59.375Z,18.52
2022-09-05T00:10:06.338Z,18.57
2022-09-05T00:11:46.083Z,18.62
2022-09-05T00:13:24.164Z,18.59
2022-09-05T00:15:16.142Z,18.55
2022-09-05T00:17:07.187Z,18.49
2022-09-05T00:24:22.267Z,18.41
2022-09-05T00:24:26.772Z,18.39
2022-09-05T00:24:37.913Z,18.35
2022-09-05T00:25:32.312Z,18.37
2022-09-05T00:27:19.274Z,18.39
2022-09-05T00:29:04.717Z,18.39
2022-09-05T00:31:06.831Z,18.40
2022-09-05T00:33:02.233Z,18.42
2022-09-05T00:35:09.767Z,18.36
2022-09-05T00:36:46.839Z,18.40
2022-09-05T00:38:25.947Z,18.38
2022-09-05T00:40:22.642Z,18.40
2022-09-05T00:41:58.154Z,18.41
2022-09-05T00:43:35.581Z,18.42
2022-09-05T00:45:19.748Z,18.44
2022-09-05T00:47:03.342Z,18.47
2022-09-05T00:48:46.281Z,18.45
2022-09-05T00:50:28.104Z,18.40
2022-09-05T00:52:08.191Z,18.41
2022-09-05T00:53:50.384Z,18.37
2022-09-05T00:55:32.359Z,18.39
2022-09-05T00:57:22.729Z,18.38
2022-09-05T00:59:08.122Z,18.36
2022-09-05T01:00:52.847Z,18.37
2022-09-05T01:02:52.144Z,18.38
2022-09-05T01:04:37.520Z,18.37
2022-09-05T01:06:23.432Z,18.41
2022-09-05T01:08:17.180Z,18.45
2022-09-05T01:10:04.769Z,18.47
2022-09-05T01:11:53.632Z,18.47
2022-09-05T01:13:37.395Z,18.43
2022-09-05T01:15:22.644Z,18.37
2022-09-05T01:17:09.755Z,18.33
2022-09-05T01:18:54.368Z,18.34
2022-09-05T01:20:48.017Z,18.30
2022-09-05T01:23:00.330Z,18.34
2022-09-05T01:24:55.161Z,18.33
2022-09-05T01:26:59.990Z,18.35
2022-09-05T01:29:15.982Z,18.37
2022-09-05T01:30:40.856Z,18.40
2022-09-05T01:32:26.536Z,18.38
2022-09-05T01:34:10.740Z,18.39
2022-09-05T01:36:12.098Z,18.34
2022-09-05T01:37:50.991Z,18.35
2022-09-05T01:40:14.921Z,18.34
2022-09-05T01:41:39.835Z,18.36
2022-09-05T01:43:23.989Z,18.37
2022-09-05T01:45:06.273Z,18.38
2022-09-05T01:46:43.945Z,18.36
2022-09-05T01:48:31.769Z,18.40
2022-09-05T01:50:21.908Z,18.40
2022-09-05T01:52:20.210Z,18.41
2022-09-05T01:54:00.146Z,18.43
2022-09-05T01:56:04.266Z,18.47
2022-09-05T01:57:50.940Z,18.45
2022-09-05T01:59:34.128Z,18.43
2022-09-05T02:01:25.379Z,18.39
2022-09-05T02:03:19.049Z,18.39
2022-09-05T02:05:27.514Z,18.37
2022-09-05T02:07:30.929Z,18.32
2022-09-05T02:09:28.173Z,18.29
2022-09-05T02:11:12.453Z,18.28
2022-09-05T02:12:56.783Z,18.25
2022-09-05T02:14:43.983Z,18.21
2022-09-05T02:16:26.051Z,18.16
2022-09-05T02:18:00.946Z,18.13
2022-09-05T02:19:44.504Z,18.10
2022-09-05T02:21:26.891Z,18.12
2022-09-05T02:23:41.271Z,18.12
2022-09-05T02:26:01.285Z,18.05
2022-09-05T02:27:38.889Z,18.09
2022-09-05T02:29:29.385Z,18.10
2022-09-05T02:31:20.520Z,18.09
2022-09-05T02:33:07.386Z,18.10
2022-09-05T02:34:52.149Z,18.06
2022-09-05T02:36:33.380Z,18.02
2022-09-05T02:40:36.238Z,17.96
2022-09-05T02:45:10.556Z,17.97
2022-09-05T02:45:10.985Z,17.98
2022-09-05T02:45:20.533Z,17.94
2022-09-05T02:46:18.511Z,17.85
2022-09-05T02:47:57.627Z,17.77
2022-09-05T02:51:43.665Z,17.75
2022-09-05T02:57:25.700Z,17.71
2022-09-05T02:57:26.386Z,17.67
2022-09-05T02:57:34.043Z,17.63
2022-09-05T02:58:09.151Z,17.63
2022-09-05T03:00:02.836Z,17.64
2022-09-05T03:01:59.717Z,17.63
2022-09-05T03:03:41.144Z,17.61
2022-09-05T03:05:22.033Z,17.61
2022-09-05T03:07:18.227Z,17.60
2022-09-05T03:09:16.890Z,17.58
2022-09-05T03:11:32.665Z,17.47
2022-09-05T03:13:35.763Z,17.45
2022-09-05T03:15:38.131Z,17.39
2022-09-05T03:18:20.293Z,17.30
2022-09-05T03:20:42.158Z,17.27
2022-09-05T03:22:49.065Z,17.26
2022-09-05T03:24:56.239Z,17.25
2022-09-05T03:27:02.167Z,17.22
2022-09-05T03:29:08.692Z,17.22
2022-09-05T03:31:00.575Z,17.20
2022-09-05T03:33:24.019Z,17.20
2022-09-05T03:35:36.319Z,17.17
2022-09-05T03:37:45.971Z,17.12
2022-09-05T03:39:56.209Z,17.03
2022-09-05T03:41:53.340Z,17.01
2022-09-05T03:44:00.537Z,17.01
2022-09-05T03:45:47.403Z,17.00
2022-09-05T03:48:02.209Z,16.99
2022-09-05T03:56:33.749Z,16.99
2022-09-05T03:57:08.931Z,16.99
2022-09-05T03:57:12.691Z,16.97
2022-09-05T03:57:17.819Z,16.98
2022-09-05T03:59:03.696Z,16.97
2022-09-05T04:00:38.592Z,16.90
2022-09-05T04:08:07.123Z,16.85
2022-09-05T04:08:08.220Z,16.86
2022-09-05T04:08:18.448Z,16.82
2022-09-05T04:08:42.058Z,16.83
2022-09-05T04:10:26.334Z,16.85
2022-09-05T04:12:03.458Z,16.85
2022-09-05T04:13:41.175Z,16.87
2022-09-05T04:15:23.977Z,16.91
2022-09-05T04:17:02.017Z,16.94
2022-09-05T04:18:40.842Z,16.97
2022-09-05T04:20:19.365Z,17.00
2022-09-05T04:22:04.074Z,17.07
2022-09-05T04:23:57.423Z,17.13
2022-09-05T04:25:42.779Z,17.19
2022-09-05T04:27:39.099Z,17.23
2022-09-05T04:29:21.065Z,17.30
2022-09-05T04:30:59.846Z,17.35
2022-09-05T04:32:46.557Z,17.39
2022-09-05T04:34:36.286Z,17.40
2022-09-05T04:36:21.279Z,17.44
2022-09-05T04:37:59.858Z,17.45
2022-09-05T04:39:35.861Z,17.53
2022-09-05T04:41:13.191Z,17.57
2022-09-05T04:42:46.268Z,17.63
2022-09-05T04:44:27.074Z,17.61
2022-09-05T04:46:11.757Z,17.63
2022-09-05T04:47:53.643Z,17.65
2022-09-05T04:49:29.791Z,17.67
2022-09-05T04:51:11.524Z,17.67
2022-09-05T04:53:06.556Z,17.72
2022-09-05T04:54:46.071Z,17.78
2022-09-05T04:56:27.543Z,17.76
2022-09-05T04:58:07.145Z,17.59
2022-09-05T05:06:04.496Z,17.53
2022-09-05T05:06:14.276Z,17.59
2022-09-05T05:06:18.131Z,17.46
2022-09-05T05:06:20.301Z,17.48
2022-09-05T05:07:53.398Z,17.75
2022-09-05T05:09:32.110Z,17.88
2022-09-05T05:16:25.146Z,17.98
2022-09-05T05:18:10.720Z,18.10
2022-09-05T05:18:14.532Z,18.21
2022-09-05T05:18:16.251Z,18.38
2022-09-05T05:19:22.060Z,18.52
2022-09-05T05:21:02.887Z,18.69
2022-09-05T05:22:38.954Z,18.80
2022-09-05T05:24:16.968Z,19.03
2022-09-05T05:25:58.536Z,19.24
2022-09-05T05:27:43.625Z,19.41
2022-09-05T05:29:24.614Z,19.68
2022-09-05T05:31:09.349Z,20.08
2022-09-05T05:32:46.825Z,20.49
2022-09-05T05:34:25.202Z,21.00
2022-09-05T05:36:01.753Z,21.48
2022-09-05T05:37:42.908Z,21.79
2022-09-05T05:39:24.249Z,22.04
2022-09-05T05:41:05.248Z,22.31
2022-09-05T05:42:41.642Z,22.81
2022-09-05T05:44:17.435Z,22.85
2022-09-05T05:45:59.852Z,22.91
2022-09-05T05:47:38.238Z,23.03
2022-09-05T05:49:32.695Z,23.25
2022-09-05T05:51:36.508Z,23.47
2022-09-05T05:53:42.333Z,23.67
2022-09-05T05:55:52.717Z,23.83
2022-09-05T05:58:00.925Z,24.06
2022-09-05T06:00:01.579Z,24.19
2022-09-05T06:02:28.187Z,24.64
2022-09-05T06:04:49.076Z,25.19
2022-09-05T06:06:35.214Z,25.31
2022-09-05T06:10:40.368Z,25.47
2022-09-05T06:14:55.645Z,25.73
2022-09-05T06:15:01.325Z,25.84
2022-09-05T06:16:07.575Z,26.23
2022-09-05T06:18:22.445Z,26.51
2022-09-05T06:21:54.555Z,26.91
2022-09-05T06:22:55.516Z,27.26
2022-09-05T06:25:17.678Z,27.58
2022-09-05T06:27:08.106Z,27.73
2022-09-05T06:28:57.631Z,27.70
2022-09-05T06:30:42.202Z,27.38
2022-09-05T06:32:29.903Z,27.38
2022-09-05T06:34:47.256Z,27.68
2022-09-05T06:36:44.074Z,27.88
2022-09-05T06:38:39.351Z,28.08
2022-09-05T06:40:20.370Z,28.44
2022-09-05T06:42:28.723Z,28.45
2022-09-05T06:44:26.882Z,28.67
2022-09-05T06:46:11.617Z,28.65
2022-09-05T06:47:57.001Z,28.67
2022-09-05T06:49:46.168Z,28.80
2022-09-05T06:52:06.859Z,28.71
2022-09-05T06:54:14.066Z,28.78
2022-09-05T06:56:07.274Z,28.75
2022-09-05T06:58:13.159Z,28.19
2022-09-05T07:00:18.205Z,28.01
2022-09-05T07:02:04.857Z,28.19
2022-09-05T07:04:49.242Z,28.59
2022-09-05T07:06:05.738Z,28.26
2022-09-05T07:07:46.712Z,28.60
2022-09-05T07:09:28.905Z,28.62
2022-09-05T07:11:15.549Z,28.41
2022-09-05T07:12:53.890Z,28.23
2022-09-05T07:14:31.421Z,28.29
2022-09-05T07:16:15.622Z,28.59
2022-09-05T07:18:10.987Z,28.86
2022-09-05T07:19:54.883Z,29.13
2022-09-05T07:21:37.358Z,29.41
2022-09-05T07:23:57.813Z,29.44
2022-09-05T07:25:19.373Z,29.53
2022-09-05T07:26:55.083Z,29.40
2022-09-05T07:28:30.490Z,29.38
2022-09-05T07:30:04.678Z,29.44
2022-09-05T07:31:39.841Z,29.59
2022-09-05T07:33:18.226Z,29.81
2022-09-05T07:34:54.238Z,30.16
2022-09-05T07:36:37.596Z,30.51
2022-09-05T07:38:16.610Z,30.64
2022-09-05T07:39:57.107Z,30.81
2022-09-05T07:41:34.285Z,30.76
2022-09-05T07:43:11.324Z,30.50
2022-09-05T07:44:56.515Z,30.72
2022-09-05T07:46:33.831Z,30.37
2022-09-05T07:48:12.644Z,30.44
2022-09-05T07:50:19.697Z,30.85
2022-09-05T07:56:53.093Z,30.79
2022-09-05T07:56:54.031Z,30.81
2022-09-05T07:56:59.014Z,30.72
2022-09-05T07:57:50.197Z,31.09
2022-09-05T07:59:28.867Z,31.28
2022-09-05T08:01:03.575Z,30.90
2022-09-05T08:02:45.372Z,30.75
2022-09-05T08:04:26.412Z,30.81
2022-09-05T08:06:05.351Z,30.51
2022-09-05T08:07:46.737Z,30.33
2022-09-05T08:10:06.136Z,30.36
2022-09-05T08:11:27.901Z,30.79
2022-09-05T08:13:24.549Z,30.72
2022-09-05T08:15:10.283Z,30.86
2022-09-05T08:16:48.094Z,31.02
2022-09-05T08:18:30.148Z,31.08
2022-09-05T08:20:18.074Z,31.16
2022-09-05T08:21:54.352Z,31.22
2022-09-05T08:23:50.065Z,31.48
2022-09-05T08:25:37.620Z,31.35
2022-09-05T08:27:29.729Z,31.19
2022-09-05T08:29:11.961Z,31.25
2022-09-05T08:30:51.161Z,31.39
2022-09-05T08:32:35.641Z,31.49
2022-09-05T08:34:12.793Z,31.48
2022-09-05T08:35:49.948Z,31.54
2022-09-05T08:37:28.200Z,31.86
2022-09-05T08:39:03.572Z,31.45
2022-09-05T08:40:42.416Z,31.33
2022-09-05T08:42:29.781Z,31.50
2022-09-05T08:46:39.245Z,29.56
2022-09-05T08:46:41.199Z,30.99
2022-09-05T08:48:20.982Z,29.41
2022-09-05T08:50:20.910Z,29.76
2022-09-05T08:52:08.442Z,30.21
2022-09-05T08:54:00.654Z,30.46
2022-09-05T08:55:45.677Z,30.94
2022-09-05T08:57:23.458Z,31.06
2022-09-05T08:59:28.367Z,30.87
2022-09-05T09:01:06.989Z,29.95
2022-09-05T09:02:56.532Z,29.29
2022-09-05T09:05:02.309Z,28.35
2022-09-05T09:07:47.183Z,28.01
2022-09-05T09:09:09.484Z,27.78
2022-09-05T09:10:53.466Z,27.95
2022-09-05T09:12:59.956Z,28.34
2022-09-05T09:14:38.736Z,28.55
2022-09-05T09:16:25.924Z,28.54
2022-09-05T09:18:00.586Z,28.10
2022-09-05T09:19:49.401Z,27.76
2022-09-05T09:21:26.485Z,27.52
2022-09-05T09:23:03.480Z,27.60
2022-09-05T09:24:42.869Z,27.70
2022-09-05T09:26:20.346Z,27.33
2022-09-05T09:28:49.404Z,26.99
2022-09-05T09:30:26.380Z,26.56
2022-09-05T09:32:07.420Z,26.33
2022-09-05T09:33:47.458Z,26.18
2022-09-05T09:35:28.581Z,25.94
2022-09-05T09:37:26.782Z,25.92
2022-09-05T09:39:38.726Z,26.04
2022-09-05T09:41:30.795Z,25.99
2022-09-05T09:43:09.737Z,25.93
2022-09-05T09:45:28.046Z,26.00
2022-09-05T09:47:10.190Z,26.22
2022-09-05T09:49:22.597Z,26.38
2022-09-05T09:51:11.166Z,26.40
2022-09-05T09:53:20.326Z,26.63
2022-09-05T09:55:39.225Z,26.75
2022-09-05T09:58:04.215Z,26.78
2022-09-05T10:00:08.372Z,26.50
2022-09-05T10:02:00.953Z,26.53
2022-09-05T10:10:04.365Z,26.41
2022-09-05T10:10:47.956Z,26.48
2022-09-05T10:11:07.997Z,26.54
2022-09-05T10:13:25.552Z,26.50
2022-09-05T10:15:31.636Z,26.49
2022-09-05T10:17:30.675Z,26.45
2022-09-05T10:21:44.142Z,26.61
2022-09-05T10:23:53.747Z,26.48
2022-09-05T10:25:58.237Z,26.51
2022-09-05T10:27:47.092Z,26.45
2022-09-05T10:29:45.667Z,26.27
2022-09-05T10:33:22.655Z,25.98
2022-09-05T10:35:15.498Z,25.70
2022-09-05T10:35:37.661Z,25.73
2022-09-05T10:37:13.693Z,25.83
2022-09-05T10:38:51.603Z,26.04
2022-09-05T10:40:28.817Z,26.25
2022-09-05T10:42:07.173Z,26.30
2022-09-05T10:43:50.817Z,26.16
2022-09-05T10:45:38.710Z,26.06
2022-09-05T10:47:24.990Z,26.20
2022-09-05T10:49:05.706Z,26.12
2022-09-05T10:50:44.935Z,26.19
2022-09-05T10:52:23.656Z,26.15
2022-09-05T10:54:21.847Z,26.15
2022-09-05T10:56:05.235Z,26.18
2022-09-05T10:57:48.726Z,26.36
2022-09-05T11:02:19.479Z,26.51
2022-09-05T11:02:27.377Z,26.45
2022-09-05T11:03:45.887Z,26.20
2022-09-05T11:05:24.913Z,26.09
2022-09-05T11:07:05.718Z,26.16
2022-09-05T11:08:49.498Z,26.25
2022-09-05T11:10:31.693Z,26.40
2022-09-05T11:12:13.608Z,26.51
2022-09-05T11:13:50.035Z,26.61
2022-09-05T11:15:31.433Z,26.62
2022-09-05T11:17:15.482Z,26.56
2022-09-05T11:19:02.355Z,26.55
2022-09-05T11:21:00.546Z,26.57
2022-09-05T11:22:40.417Z,26.61
2022-09-05T11:24:29.306Z,26.65
2022-09-05T11:26:07.774Z,26.67
2022-09-05T11:27:44.444Z,26.77
2022-09-05T11:29:23.757Z,26.84
2022-09-05T11:30:59.231Z,26.86
2022-09-05T11:39:17.232Z,26.83
2022-09-05T11:39:46.644Z,26.72
2022-09-05T11:39:54.296Z,26.80
2022-09-05T11:40:31.080Z,26.75
2022-09-05T11:42:39.012Z,26.83
2022-09-05T11:44:26.984Z,26.91
2022-09-05T11:46:21.972Z,27.08
2022-09-05T11:48:22.298Z,27.15
2022-09-05T11:50:34.111Z,27.08
2022-09-05T11:52:41.074Z,26.77
2022-09-05T11:54:49.019Z,26.64
2022-09-05T11:56:50.587Z,26.36
2022-09-05T11:58:43.746Z,26.20
2022-09-05T12:00:32.017Z,26.08
2022-09-05T12:02:27.522Z,26.06
2022-09-05T12:04:39.709Z,26.13
2022-09-05T12:06:47.983Z,26.10
2022-09-05T12:08:29.814Z,26.24
2022-09-05T12:10:45.954Z,26.47
2022-09-05T12:12:39.156Z,26.53
2022-09-05T12:14:34.021Z,26.59
2022-09-05T12:16:39.850Z,26.59
2022-09-05T12:18:24.369Z,26.64
2022-09-05T12:20:06.727Z,26.67
2022-09-05T12:22:22.284Z,26.72
2022-09-05T12:24:36.727Z,26.82
2022-09-05T12:27:35.310Z,26.83
2022-09-05T12:30:00.428Z,26.86
2022-09-05T12:32:36.335Z,26.78
2022-09-05T12:36:07.462Z,26.83
2022-09-05T12:36:10.060Z,26.82
2022-09-05T12:40:56.916Z,26.68
2022-09-05T12:41:36.785Z,26.69
2022-09-05T12:42:09.583Z,26.88
2022-09-05T12:42:13.692Z,26.78
2022-09-05T12:44:37.558Z,26.90
2022-09-05T12:45:46.582Z,26.78
2022-09-05T12:47:23.150Z,26.68
2022-09-05T12:49:07.207Z,26.68
2022-09-05T12:50:48.700Z,26.68
2022-09-05T12:52:38.247Z,26.79
2022-09-05T12:54:29.887Z,26.90
2022-09-05T12:57:38.953Z,26.96
2022-09-05T13:03:01.950Z,26.70
2022-09-05T13:03:02.402Z,26.85
2022-09-05T13:03:07.313Z,26.84
2022-09-05T13:04:29.753Z,26.59
2022-09-05T13:06:08.935Z,26.56
2022-09-05T13:07:45.567Z,26.55
2022-09-05T13:09:30.869Z,26.57
2022-09-05T13:14:48.634Z,26.60
2022-09-05T13:14:54.431Z,26.59
2022-09-05T13:15:27.842Z,26.60
2022-09-05T13:17:06.281Z,26.63
2022-09-05T13:18:43.110Z,26.66
2022-09-05T13:20:20.575Z,26.65
2022-09-05T13:21:57.483Z,26.55
2022-09-05T13:23:36.669Z,26.41
2022-09-05T13:25:16.860Z,26.32
2022-09-05T13:26:56.632Z,26.26
2022-09-05T13:28:41.577Z,26.31
2022-09-05T13:37:55.106Z,26.52
2022-09-05T13:37:55.196Z,26.39
2022-09-05T13:38:05.947Z,26.53
2022-09-05T13:38:15.469Z,26.55
2022-09-05T13:40:11.698Z,26.53
2022-09-05T13:41:50.214Z,26.51
2022-09-05T13:43:26.892Z,26.43
2022-09-05T13:45:02.139Z,26.32
2022-09-05T13:46:44.450Z,26.20
2022-09-05T13:50:31.631Z,26.02
2022-09-05T13:52:26.346Z,25.97
2022-09-05T13:54:33.143Z,25.91
2022-09-05T13:56:24.148Z,25.83
2022-09-05T13:58:07.715Z,25.82
2022-09-05T13:59:44.825Z,25.79
2022-09-05T14:01:38.381Z,25.75
2022-09-05T14:03:40.731Z,25.71
2022-09-05T14:05:28.428Z,25.81
2022-09-05T14:09:42.111Z,26.06
2022-09-05T14:11:45.226Z,26.25
2022-09-05T14:13:24.459Z,26.30
2022-09-05T14:15:10.590Z,26.36
2022-09-05T14:16:53.726Z,26.40
2022-09-05T14:18:33.840Z,26.35
2022-09-05T14:20:27.960Z,26.44
2022-09-05T14:22:03.806Z,26.57
2022-09-05T14:23:45.729Z,26.58
2022-09-05T14:25:24.792Z,26.57
2022-09-05T14:27:12.099Z,26.59
2022-09-05T14:28:51.704Z,26.54
2022-09-05T14:31:37.135Z,26.60
2022-09-05T14:37:39.150Z,26.63
2022-09-05T14:37:49.008Z,26.64
2022-09-05T14:37:50.671Z,26.66
2022-09-05T14:39:46.564Z,26.60
2022-09-05T14:42:07.637Z,26.70
2022-09-05T14:44:29.380Z,26.63
2022-09-05T14:46:17.643Z,26.68
2022-09-05T14:48:17.168Z,26.67
2022-09-05T14:50:04.993Z,26.57
2022-09-05T14:51:47.157Z,26.48
2022-09-05T14:55:20.549Z,26.32
2022-09-05T14:59:19.191Z,26.21
2022-09-05T15:02:42.724Z,26.17
2022-09-05T15:02:53.849Z,26.05
2022-09-05T15:03:04.278Z,25.89
2022-09-05T15:04:45.023Z,25.76
2022-09-05T15:06:21.430Z,25.65
2022-09-05T15:08:18.286Z,25.56
2022-09-05T15:12:16.122Z,25.41
2022-09-05T15:12:33.069Z,25.35
2022-09-05T15:14:12.983Z,25.31
2022-09-05T15:16:03.012Z,25.26
2022-09-05T15:17:37.241Z,25.22
2022-09-05T15:19:11.699Z,25.18
2022-09-05T15:20:47.100Z,25.15
2022-09-05T15:22:24.567Z,25.10
2022-09-05T15:24:03.424Z,25.05
2022-09-05T15:25:47.201Z,25.10
2022-09-05T15:27:20.750Z,25.09
2022-09-05T15:29:14.018Z,25.05
2022-09-05T15:30:57.832Z,24.99
2022-09-05T15:32:32.055Z,24.96
2022-09-05T15:34:21.930Z,24.94
2022-09-05T15:35:56.403Z,24.94
2022-09-05T15:37:37.203Z,24.93
2022-09-05T15:39:22.471Z,24.91
2022-09-05T15:41:17.392Z,24.91
2022-09-05T15:42:55.050Z,24.90
2022-09-05T15:44:34.088Z,24.87
2022-09-05T15:46:23.599Z,24.88
2022-09-05T15:48:08.961Z,24.87
2022-09-05T15:49:54.506Z,24.86
2022-09-05T15:51:44.923Z,24.83
2022-09-05T15:53:25.822Z,24.82
2022-09-05T15:55:05.416Z,24.80
2022-09-05T15:56:48.242Z,24.78
2022-09-05T15:58:21.714Z,24.77
2022-09-05T15:59:58.390Z,24.77
2022-09-05T16:01:59.028Z,24.75
2022-09-05T16:05:53.370Z,24.64
2022-09-05T16:10:28.505Z,24.63
2022-09-05T16:10:38.259Z,24.65
2022-09-05T16:10:50.977Z,24.67
2022-09-05T16:13:36.754Z,24.57
2022-09-05T16:18:06.915Z,24.52
2022-09-05T16:23:20.340Z,24.50
2022-09-05T16:23:23.943Z,24.44
2022-09-05T16:23:35.246Z,24.46
2022-09-05T16:23:40.721Z,24.39
2022-09-05T16:25:19.731Z,24.34
2022-09-05T16:26:57.026Z,24.31
2022-09-05T16:28:36.104Z,24.28
2022-09-05T16:30:12.051Z,24.25
2022-09-05T16:31:57.526Z,24.22
2022-09-05T16:33:33.236Z,24.19
2022-09-05T16:35:10.366Z,24.12
2022-09-05T16:37:07.971Z,24.14
2022-09-05T16:38:49.586Z,24.08
2022-09-05T16:40:27.411Z,24.02
2022-09-05T16:42:04.678Z,23.97
2022-09-05T16:43:43.926Z,23.92
2022-09-05T16:45:27.374Z,23.87
2022-09-05T16:47:13.664Z,23.82
2022-09-05T16:48:54.903Z,23.76
2022-09-05T16:50:36.899Z,23.69
2022-09-05T16:52:17.732Z,23.61
2022-09-05T16:53:58.545Z,23.53
2022-09-05T16:55:36.539Z,23.49
2022-09-05T16:57:16.254Z,23.42
2022-09-05T16:58:54.412Z,23.35
2022-09-05T17:00:26.980Z,23.31
2022-09-05T17:02:09.314Z,23.27
2022-09-05T17:03:57.386Z,23.19
2022-09-05T17:05:38.769Z,23.19
2022-09-05T17:07:17.546Z,23.12
2022-09-05T17:08:53.161Z,22.98
2022-09-05T17:10:35.999Z,22.90
2022-09-05T17:12:13.067Z,22.79
2022-09-05T17:13:51.102Z,22.72
2022-09-05T17:15:30.132Z,22.64
2022-09-05T17:17:35.997Z,22.65
2022-09-05T17:19:14.003Z,22.59
2022-09-05T17:20:50.949Z,22.54
2022-09-05T17:24:10.995Z,22.49
2022-09-05T17:29:20.838Z,22.42
2022-09-05T17:29:26.614Z,22.40
2022-09-05T17:29:45.464Z,22.35
2022-09-05T17:32:58.873Z,22.23
2022-09-05T17:34:52.063Z,22.08
2022-09-05T17:36:41.245Z,21.97
2022-09-05T17:38:42.530Z,21.89
2022-09-05T17:40:42.295Z,21.81
2022-09-05T17:42:28.762Z,21.75
2022-09-05T17:44:10.602Z,21.63
2022-09-05T17:45:49.774Z,21.57
2022-09-05T17:47:36.264Z,21.57
2022-09-05T17:49:19.420Z,21.56
2022-09-05T17:50:54.419Z,21.51
2022-09-05T17:52:28.354Z,21.39
2022-09-05T17:54:26.467Z,21.31
2022-09-05T17:56:29.704Z,21.11
2022-09-05T17:58:22.298Z,20.99
2022-09-05T17:59:55.063Z,20.89
2022-09-05T18:01:32.631Z,20.82
2022-09-05T18:03:06.498Z,20.75
2022-09-05T18:04:47.813Z,20.76
2022-09-05T18:06:36.141Z,20.65
2022-09-05T18:08:09.841Z,20.61
2022-09-05T18:10:12.771Z,20.59
2022-09-05T18:12:27.124Z,20.63
2022-09-05T18:14:29.812Z,20.59
2022-09-05T18:16:11.838Z,20.50
2022-09-05T18:18:05.471Z,20.44
2022-09-05T18:20:10.966Z,20.34
2022-09-05T18:21:51.765Z,20.23
2022-09-05T18:23:54.462Z,20.18
2022-09-05T18:25:33.405Z,20.11
2022-09-05T18:28:03.436Z,20.07
2022-09-05T18:29:57.337Z,19.95
2022-09-05T18:31:57.265Z,19.93
2022-09-05T18:33:56.022Z,19.93
2022-09-05T18:35:36.801Z,19.96
2022-09-05T18:38:02.353Z,19.99
2022-09-05T18:39:45.972Z,19.97
2022-09-05T18:41:24.698Z,19.88
2022-09-05T18:42:57.823Z,19.76
2022-09-05T18:44:48.761Z,19.57
2022-09-05T18:46:25.594Z,19.49
2022-09-05T18:48:03.009Z,19.48
2022-09-05T18:50:22.681Z,19.39
2022-09-05T18:51:35.445Z,19.42
2022-09-05T18:53:12.856Z,19.46
2022-09-05T18:55:33.984Z,19.43
2022-09-05T18:57:15.244Z,19.34
2022-09-05T18:58:52.446Z,19.34
2022-09-05T19:00:35.028Z,19.34
2022-09-05T19:02:26.912Z,19.39
2022-09-05T19:04:39.521Z,19.29
2022-09-05T19:06:37.015Z,19.25
2022-09-05T19:08:28.727Z,19.20
2022-09-05T19:10:35.000Z,19.15
2022-09-05T19:12:35.146Z,19.11
2022-09-05T19:14:25.428Z,19.01
2022-09-05T19:16:42.083Z,18.75
2022-09-05T19:17:59.923Z,18.69
2022-09-05T19:20:30.991Z,18.62
2022-09-05T19:23:01.099Z,18.60
2022-09-05T19:24:09.381Z,18.55
2022-09-05T19:25:46.164Z,18.41
2022-09-05T19:28:57.103Z,18.29
2022-09-05T19:36:44.783Z,18.24
2022-09-05T19:36:51.438Z,18.11
2022-09-05T19:37:02.248Z,18.01
2022-09-05T19:37:08.197Z,18.20
2022-09-05T19:37:30.542Z,17.86
2022-09-05T19:42:01.797Z,17.73
2022-09-05T19:47:37.193Z,17.64
2022-09-05T19:47:45.143Z,17.63
2022-09-05T19:47:51.744Z,17.64
2022-09-05T19:47:56.429Z,17.66
2022-09-05T19:48:47.768Z,17.57
2022-09-05T19:50:23.467Z,17.49
2022-09-05T19:51:59.124Z,17.38
2022-09-05T19:53:36.375Z,17.35
2022-09-05T19:55:22.138Z,17.34
2022-09-05T19:57:02.009Z,17.38
2022-09-05T19:58:35.475Z,17.37
2022-09-05T20:00:11.809Z,17.35
2022-09-05T20:01:46.926Z,17.31
2022-09-05T20:03:23.669Z,17.29
2022-09-05T20:05:00.213Z,17.27
2022-09-05T20:06:33.746Z,17.39
2022-09-05T20:08:12.548Z,17.43
2022-09-05T20:09:47.898Z,17.47
2022-09-05T20:11:45.058Z,17.52
2022-09-05T20:13:26.572Z,17.57
2022-09-05T20:15:20.530Z,17.59
2022-09-05T20:16:57.700Z,17.61
2022-09-05T20:18:39.754Z,17.58
2022-09-05T20:20:15.364Z,17.55
2022-09-05T20:21:48.816Z,17.53
2022-09-05T20:23:25.146Z,17.51
2022-09-05T20:24:59.481Z,17.53
2022-09-05T20:26:35.728Z,17.54
2022-09-05T20:28:11.490Z,17.52
2022-09-05T20:29:55.775Z,17.49
2022-09-05T20:31:33.487Z,17.48
2022-09-05T20:33:15.553Z,17.42
2022-09-05T20:37:00.905Z,17.37
2022-09-05T20:43:10.915Z,17.36
2022-09-05T20:43:22.838Z,17.31
2022-09-05T20:43:32.445Z,17.29
2022-09-05T20:43:35.651Z,17.33
2022-09-05T20:44:42.349Z,17.27
2022-09-05T20:49:32.439Z,17.23
2022-09-05T20:54:09.665Z,17.21
2022-09-05T20:54:22.586Z,17.21
2022-09-05T20:54:25.002Z,17.18
2022-09-05T20:54:35.094Z,17.09
2022-09-05T20:56:20.649Z,16.93
2022-09-05T20:57:54.367Z,16.92
2022-09-05T20:59:34.990Z,16.88
2022-09-05T21:01:21.275Z,16.80
2022-09-05T21:03:00.259Z,16.74
2022-09-05T21:04:38.756Z,16.73
2022-09-05T21:06:20.122Z,16.72
2022-09-05T21:08:07.477Z,16.64
2022-09-05T21:09:54.101Z,16.60
2022-09-05T21:11:32.014Z,16.53
2022-09-05T21:13:05.239Z,16.47
2022-09-05T21:14:38.535Z,16.40
2022-09-05T21:16:16.420Z,16.24
2022-09-05T21:17:51.176Z,16.21
2022-09-05T21:19:30.398Z,16.18
2022-09-05T21:21:14.636Z,16.09
2022-09-05T21:22:58.771Z,16.07
2022-09-05T21:24:32.306Z,16.06
2022-09-05T21:26:07.012Z,16.09
2022-09-05T21:27:40.331Z,16.06
2022-09-05T21:29:17.821Z,16.08
2022-09-05T21:30:51.290Z,16.10
2022-09-05T21:32:26.030Z,16.07
2022-09-05T21:34:05.079Z,16.06
2022-09-05T21:35:43.804Z,16.04
2022-09-05T21:37:18.677Z,15.95
2022-09-05T21:38:52.256Z,16.03
2022-09-05T21:40:25.571Z,15.95
2022-09-05T21:42:03.499Z,15.93
2022-09-05T21:47:39.101Z,15.92
2022-09-05T21:47:43.334Z,15.94
2022-09-05T21:47:52.520Z,15.98
2022-09-05T21:49:26.754Z,16.04
2022-09-05T21:51:07.460Z,16.07
2022-09-05T21:52:52.929Z,16.01
2022-09-05T21:59:17.035Z,15.98
2022-09-05T21:59:18.446Z,15.96
2022-09-05T21:59:29.948Z,15.97
2022-09-05T22:00:18.179Z,16.04
2022-09-05T22:01:53.193Z,16.02
2022-09-05T22:03:26.679Z,16.02
2022-09-05T22:05:03.032Z,15.96
2022-09-05T22:06:38.092Z,15.89
2022-09-05T22:08:13.334Z,15.76
2022-09-05T22:09:45.884Z,15.79
2022-09-05T22:11:19.198Z,15.79
2022-09-05T22:12:52.602Z,15.81
2022-09-05T22:14:26.846Z,15.86
2022-09-05T22:16:04.346Z,15.89
2022-09-05T22:17:38.883Z,15.92
2022-09-05T22:19:14.701Z,15.93
2022-09-05T22:21:01.366Z,15.93
2022-09-05T22:22:55.627Z,15.96
2022-09-05T22:24:34.293Z,15.94
2022-09-05T22:26:08.117Z,15.92
2022-09-05T22:27:45.280Z,15.91
2022-09-05T22:29:17.557Z,15.86
2022-09-05T22:30:52.056Z,15.85
2022-09-05T22:32:33.784Z,15.88
2022-09-05T22:34:08.567Z,15.92
2022-09-05T22:35:42.478Z,15.86
2022-09-05T22:37:17.204Z,15.85
2022-09-05T22:38:52.253Z,15.82
2022-09-05T22:40:25.617Z,15.79
2022-09-05T22:41:58.814Z,15.73
2022-09-05T22:43:33.417Z,15.70
2022-09-05T22:45:06.509Z,15.69
2022-09-05T22:46:40.035Z,15.65
2022-09-05T22:48:14.738Z,15.53
2022-09-05T22:49:48.242Z,15.53
2022-09-05T22:51:21.406Z,15.45
2022-09-05T22:52:54.669Z,15.42
2022-09-05T22:54:29.226Z,15.40
2022-09-05T22:56:08.224Z,15.41
2022-09-05T22:57:41.345Z,15.35
2022-09-05T22:59:16.801Z,15.34
2022-09-05T23:00:50.111Z,15.31
2022-09-05T23:02:23.725Z,15.22
2022-09-05T23:03:56.143Z,15.15
2022-09-05T23:05:29.814Z,15.09
2022-09-05T23:07:03.685Z,15.07
2022-09-05T23:08:37.165Z,15.05
2022-09-05T23:10:11.910Z,15.06
2022-09-05T23:11:45.135Z,15.11
2022-09-05T23:13:18.352Z,15.11
2022-09-05T23:14:50.695Z,15.14
2022-09-05T23:16:24.070Z,15.10
2022-09-05T23:17:58.702Z,15.03
2022-09-05T23:19:32.017Z,14.96
2022-09-05T23:21:05.555Z,14.93
2022-09-05T23:22:39.597Z,14.79
2022-09-05T23:24:12.865Z,14.85
2022-09-05T23:25:46.489Z,14.86
2022-09-05T23:27:19.964Z,14.87
2022-09-05T23:28:53.326Z,14.87
2022-09-05T23:30:26.631Z,14.88
2022-09-05T23:31:59.759Z,14.91
2022-09-05T23:33:32.664Z,14.94
2022-09-05T23:35:06.675Z,14.94
2022-09-05T23:36:39.870Z,14.94
2022-09-05T23:38:13.194Z,14.94
2022-09-05T23:39:46.686Z,14.95